createdAt,value
2023-02-27T00:01:58.982Z,6.50
2023-02-27T00:04:27.275Z,6.50
2023-02-27T00:06:55.533Z,6.50
2023-02-27T00:09:23.783Z,6.50
2023-02-27T00:11:52.157Z,6.60
2023-02-27T00:14:20.373Z,6.50
2023-02-27T00:16:48.649Z,6.40
2023-02-27T00:19:18.380Z,6.40
2023-02-27T00:21:46.663Z,6.40
2023-02-27T00:24:15.112Z,6.40
2023-02-27T00:26:43.329Z,6.30
2023-02-27T00:29:12.391Z,6.30
2023-02-27T00:31:40.705Z,6.30
2023-02-27T00:34:09.183Z,6.30
2023-02-27T00:36:39.054Z,6.30
2023-02-27T00:39:07.258Z,6.30
2023-02-27T00:41:35.692Z,6.30
2023-02-27T00:44:04.034Z,6.30
2023-02-27T00:46:32.388Z,6.30
2023-02-27T00:49:00.857Z,6.20
2023-02-27T00:51:29.190Z,6.30
2023-02-27T00:53:58.904Z,6.30
2023-02-27T00:56:27.241Z,6.30
2023-02-27T00:58:55.824Z,6.30
2023-02-27T01:01:24.297Z,6.30
2023-02-27T01:03:52.722Z,6.20
2023-02-27T01:06:21.093Z,6.20
2023-02-27T01:08:49.379Z,6.30
2023-02-27T01:11:19.062Z,6.20
2023-02-27T01:13:47.389Z,6.20
2023-02-27T01:16:15.725Z,6.20
2023-02-27T01:18:44.156Z,6.20
2023-02-27T01:21:12.524Z,6.20
2023-02-27T01:23:40.808Z,6.20
2023-02-27T01:26:09.174Z,6.20
2023-02-27T01:28:38.952Z,6.10
2023-02-27T01:31:07.327Z,6.10
2023-02-27T01:33:35.652Z,6.10
2023-02-27T01:36:04.130Z,6.10
2023-02-27T01:38:32.830Z,6.10
2023-02-27T01:41:01.872Z,6.00
2023-02-27T01:43:30.217Z,6.00
2023-02-27T01:46:00.776Z,6.00
2023-02-27T01:48:35.438Z,6.30
2023-02-27T01:51:06.630Z,6.00
2023-02-27T01:53:37.977Z,6.00
2023-02-27T01:56:10.323Z,6.00
2023-02-27T01:58:39.316Z,5.90
2023-02-27T02:01:09.135Z,5.90
2023-02-27T02:03:42.751Z,5.90
2023-02-27T02:06:11.145Z,6.10
2023-02-27T02:08:43.864Z,5.90
2023-02-27T02:11:14.639Z,5.90
2023-02-27T02:13:43.627Z,5.80
2023-02-27T02:16:35.842Z,5.80
2023-02-27T02:19:21.924Z,5.80
2023-02-27T02:22:30.884Z,5.80
2023-02-27T02:25:47.161Z,5.80
2023-02-27T02:28:35.167Z,5.80
2023-02-27T02:31:41.834Z,5.80
2023-02-27T02:34:45.326Z,5.70
2023-02-27T02:37:45.928Z,5.70
2023-02-27T02:40:27.977Z,5.70
2023-02-27T02:43:05.568Z,5.70
2023-02-27T02:45:45.386Z,5.70
2023-02-27T02:48:17.864Z,5.70
2023-02-27T02:50:51.437Z,5.70
2023-02-27T02:53:36.115Z,5.70
2023-02-27T02:56:12.158Z,5.70
2023-02-27T02:58:49.008Z,5.60
2023-02-27T03:01:20.094Z,5.60
2023-02-27T03:03:52.702Z,5.60
2023-02-27T03:06:24.840Z,5.60
2023-02-27T03:09:00.210Z,5.60
2023-02-27T03:11:34.236Z,5.60
2023-02-27T03:14:08.002Z,5.60
2023-02-27T03:16:41.211Z,5.60
2023-02-27T03:19:14.364Z,5.60
2023-02-27T03:21:47.207Z,5.60
2023-02-27T03:24:21.914Z,5.60
2023-02-27T03:26:57.217Z,5.60
2023-02-27T03:29:31.399Z,5.60
2023-02-27T03:32:04.591Z,5.60
2023-02-27T03:34:36.435Z,5.60
2023-02-27T03:37:21.729Z,5.60
2023-02-27T03:39:51.549Z,5.60
2023-02-27T03:42:30.298Z,5.50
2023-02-27T03:45:24.538Z,5.60
2023-02-27T03:47:53.558Z,5.50
2023-02-27T03:50:22.418Z,5.50
2023-02-27T03:52:51.991Z,5.50
2023-02-27T03:55:23.998Z,5.50
2023-02-27T03:57:54.668Z,5.50
2023-02-27T04:00:25.280Z,5.50
2023-02-27T04:02:55.880Z,5.50
2023-02-27T04:05:27.481Z,5.50
2023-02-27T04:08:32.322Z,5.50
2023-02-27T04:11:26.558Z,5.50
2023-02-27T04:14:14.022Z,5.40
2023-02-27T04:16:59.689Z,5.40
2023-02-27T04:19:47.677Z,5.40
2023-02-27T04:22:31.666Z,5.40
2023-02-27T04:25:11.349Z,5.40
2023-02-27T04:27:43.482Z,5.40
2023-02-27T04:30:25.771Z,5.40
2023-02-27T04:32:58.632Z,5.40
2023-02-27T04:35:32.871Z,5.40
2023-02-27T04:38:05.002Z,5.30
2023-02-27T04:40:38.392Z,5.30
2023-02-27T04:43:10.227Z,5.30
2023-02-27T04:45:42.761Z,5.30
2023-02-27T04:48:19.688Z,5.30
2023-02-27T04:50:53.332Z,5.30
2023-02-27T04:53:25.274Z,5.20
2023-02-27T04:55:56.857Z,5.20
2023-02-27T04:58:29.328Z,5.20
2023-02-27T05:01:03.850Z,5.20
2023-02-27T05:03:35.545Z,5.20
2023-02-27T05:06:04.572Z,5.20
2023-02-27T05:08:37.833Z,5.20
2023-02-27T05:11:12.692Z,5.20
2023-02-27T05:13:46.488Z,5.10
2023-02-27T05:16:20.906Z,5.10
2023-02-27T05:18:50.493Z,5.10
2023-02-27T05:21:27.482Z,5.10
2023-02-27T05:24:05.468Z,5.10
2023-02-27T05:26:51.388Z,5.00
2023-02-27T05:29:26.530Z,5.00
2023-02-27T05:32:04.384Z,5.00
2023-02-27T05:34:38.942Z,5.00
2023-02-27T05:37:13.384Z,5.00
2023-02-27T05:39:43.339Z,5.00
2023-02-27T05:42:17.828Z,5.30
2023-02-27T05:44:52.905Z,5.00
2023-02-27T05:47:26.203Z,4.90
2023-02-27T05:49:58.310Z,4.90
2023-02-27T05:52:29.370Z,4.90
2023-02-27T05:55:05.011Z,4.90
2023-02-27T05:57:41.536Z,4.90
2023-02-27T06:00:16.196Z,4.80
2023-02-27T06:02:46.386Z,4.80
2023-02-27T06:05:17.568Z,4.80
2023-02-27T06:07:45.991Z,4.80
2023-02-27T06:10:16.789Z,4.80
2023-02-27T06:12:45.110Z,4.80
2023-02-27T06:15:14.108Z,4.80
2023-02-27T06:17:42.662Z,4.80
2023-02-27T06:20:13.619Z,4.90
2023-02-27T06:22:42.069Z,4.70
2023-02-27T06:25:10.982Z,4.70
2023-02-27T06:27:39.392Z,4.70
2023-02-27T06:30:09.137Z,4.70
2023-02-27T06:32:37.510Z,4.70
2023-02-27T06:35:06.785Z,4.70
2023-02-27T06:37:36.542Z,4.70
2023-02-27T06:40:08.829Z,4.70
2023-02-27T06:42:37.240Z,4.70
2023-02-27T06:45:06.343Z,4.70
2023-02-27T06:47:35.247Z,4.70
2023-02-27T06:50:04.030Z,4.70
2023-02-27T06:52:32.394Z,4.70
2023-02-27T06:55:01.987Z,4.70
2023-02-27T06:57:30.308Z,4.70
2023-02-27T06:59:58.611Z,4.70
2023-02-27T07:02:27.187Z,4.70
2023-02-27T07:04:55.618Z,4.70
2023-02-27T07:07:35.893Z,4.70
2023-02-27T07:10:08.253Z,4.70
2023-02-27T07:12:36.548Z,4.70
2023-02-27T07:15:05.483Z,4.70
2023-02-27T07:17:33.898Z,4.80
2023-02-27T07:20:02.243Z,4.80
2023-02-27T07:22:30.783Z,4.80
2023-02-27T07:24:59.157Z,4.80
2023-02-27T07:27:29.285Z,4.80
2023-02-27T07:29:57.684Z,4.80
2023-02-27T07:32:26.180Z,4.80
2023-02-27T07:34:54.790Z,4.80
2023-02-27T07:37:23.074Z,4.80
2023-02-27T07:39:51.671Z,4.90
2023-02-27T07:42:19.983Z,4.90
2023-02-27T07:44:49.678Z,5.10
2023-02-27T07:47:18.778Z,4.90
2023-02-27T07:49:47.187Z,5.00
2023-02-27T07:52:15.437Z,5.00
2023-02-27T07:54:43.789Z,5.00
2023-02-27T07:57:12.178Z,5.00
2023-02-27T07:59:40.828Z,5.00
2023-02-27T08:02:11.544Z,5.00
2023-02-27T08:04:39.951Z,5.00
2023-02-27T08:07:08.315Z,5.10
2023-02-27T08:09:36.606Z,5.10
2023-02-27T08:12:05.066Z,5.00
2023-02-27T08:14:33.549Z,5.10
2023-02-27T08:17:01.953Z,5.10
2023-02-27T08:19:31.677Z,5.10
2023-02-27T08:21:59.928Z,5.20
2023-02-27T08:24:29.758Z,5.10
2023-02-27T08:26:58.354Z,5.20
2023-02-27T08:29:26.984Z,5.20
2023-02-27T08:31:55.423Z,5.20
2023-02-27T08:34:23.716Z,5.20
2023-02-27T08:36:53.666Z,5.30
2023-02-27T08:39:24.205Z,5.30
2023-02-27T08:41:52.658Z,5.30
2023-02-27T08:44:21.327Z,5.30
2023-02-27T08:46:49.737Z,5.40
2023-02-27T08:49:20.532Z,5.40
2023-02-27T08:51:49.793Z,5.40
2023-02-27T08:54:19.708Z,5.40
2023-02-27T08:56:48.908Z,5.40
2023-02-27T08:59:17.560Z,5.40
2023-02-27T09:01:45.911Z,5.40
2023-02-27T09:04:14.306Z,5.50
2023-02-27T09:06:42.560Z,5.40
2023-02-27T09:09:10.995Z,5.50
2023-02-27T09:11:40.675Z,5.50
2023-02-27T09:14:09.474Z,5.50
2023-02-27T09:16:38.019Z,5.50
2023-02-27T09:19:06.966Z,5.30
2023-02-27T09:21:37.409Z,5.60
2023-02-27T09:24:18.663Z,5.60
2023-02-27T09:26:51.468Z,5.60
2023-02-27T09:29:21.390Z,5.60
2023-02-27T09:31:49.774Z,5.60
2023-02-27T09:34:18.152Z,5.70
2023-02-27T09:36:46.717Z,5.70
2023-02-27T09:39:15.016Z,5.70
2023-02-27T09:42:01.173Z,5.80
2023-02-27T09:44:46.726Z,5.80
2023-02-27T09:47:20.302Z,6.00
2023-02-27T09:49:55.637Z,5.80
2023-02-27T09:52:24.092Z,5.80
2023-02-27T09:54:54.392Z,5.80
2023-02-27T09:57:43.912Z,5.80
2023-02-27T10:00:26.299Z,5.60
2023-02-27T10:03:07.441Z,5.90
2023-02-27T10:05:39.836Z,5.90
2023-02-27T10:08:18.085Z,5.80
2023-02-27T10:10:55.057Z,5.90
2023-02-27T10:13:40.365Z,5.90
2023-02-27T10:16:12.991Z,5.90
2023-02-27T10:18:49.454Z,5.90
2023-02-27T10:21:22.221Z,6.00
2023-02-27T10:23:54.778Z,5.90
2023-02-27T10:26:27.544Z,6.00
2023-02-27T10:28:57.628Z,6.00
2023-02-27T10:31:30.538Z,6.00
2023-02-27T10:34:00.884Z,6.10
2023-02-27T10:36:34.370Z,6.10
2023-02-27T10:39:08.507Z,6.10
2023-02-27T10:41:37.950Z,6.20
2023-02-27T10:44:08.146Z,6.20
2023-02-27T10:46:38.591Z,6.20
2023-02-27T10:49:18.759Z,6.30
2023-02-27T10:51:48.840Z,6.30
2023-02-27T10:54:25.251Z,6.30
2023-02-27T10:56:56.753Z,6.40
2023-02-27T10:59:28.783Z,6.40
2023-02-27T11:01:58.495Z,6.40
2023-02-27T11:04:30.527Z,6.40
2023-02-27T11:07:00.403Z,6.40
2023-02-27T11:09:32.483Z,6.50
2023-02-27T11:12:14.382Z,6.50
2023-02-27T11:14:55.192Z,6.50
2023-02-27T11:17:29.468Z,6.50
2023-02-27T11:19:58.981Z,6.70
2023-02-27T11:22:28.986Z,6.50
2023-02-27T11:25:20.271Z,6.60
2023-02-27T11:27:52.110Z,6.60
2023-02-27T11:30:28.136Z,6.60
2023-02-27T11:32:58.667Z,6.60
2023-02-27T11:35:31.231Z,6.70
2023-02-27T11:38:02.549Z,6.70
2023-02-27T11:40:33.113Z,6.70
2023-02-27T11:43:06.123Z,6.70
2023-02-27T11:46:09.864Z,6.70
2023-02-27T11:48:31.098Z,6.80
2023-02-27T11:51:22.562Z,6.80
2023-02-27T11:54:07.331Z,6.70
2023-02-27T11:56:39.180Z,6.80
2023-02-27T11:59:17.612Z,6.80
2023-02-27T12:01:52.383Z,6.80
2023-02-27T12:04:24.449Z,6.80
2023-02-27T12:06:58.688Z,6.90
2023-02-27T12:09:36.656Z,6.90
2023-02-27T12:12:11.086Z,7.00
2023-02-27T12:14:45.364Z,7.00
2023-02-27T12:17:21.355Z,7.00
2023-02-27T12:20:13.653Z,7.00
2023-02-27T12:22:45.910Z,7.10
2023-02-27T12:25:20.323Z,7.10
2023-02-27T12:27:54.635Z,7.10
2023-02-27T12:30:25.402Z,7.20
2023-02-27T12:33:04.589Z,7.20
2023-02-27T12:35:33.935Z,7.30
2023-02-27T12:38:02.762Z,7.40
2023-02-27T12:40:37.269Z,7.30
2023-02-27T12:43:23.939Z,7.30
2023-02-27T12:46:05.112Z,7.60
2023-02-27T12:48:49.986Z,7.40
2023-02-27T12:51:36.692Z,7.40
2023-02-27T12:54:20.141Z,7.50
2023-02-27T12:57:02.102Z,7.50
2023-02-27T12:59:54.453Z,7.50
2023-02-27T13:03:00.856Z,7.50
2023-02-27T13:05:44.657Z,7.50
2023-02-27T13:08:49.079Z,7.50
2023-02-27T13:11:29.441Z,7.60
2023-02-27T13:14:02.192Z,7.60
2023-02-27T13:16:34.988Z,7.60
2023-02-27T13:19:07.761Z,7.70
2023-02-27T13:21:43.598Z,7.70
2023-02-27T13:24:27.217Z,7.70
2023-02-27T13:27:01.473Z,7.70
2023-02-27T13:29:38.190Z,7.70
2023-02-27T13:32:17.705Z,7.80
2023-02-27T13:34:49.227Z,7.80
2023-02-27T13:37:18.981Z,7.80
2023-02-27T13:39:59.549Z,7.80
2023-02-27T13:42:55.115Z,7.90
2023-02-27T13:45:49.984Z,7.90
2023-02-27T13:48:48.135Z,7.90
2023-02-27T13:51:45.210Z,8.00
2023-02-27T13:54:22.730Z,8.00
2023-02-27T13:56:52.647Z,8.00
2023-02-27T13:59:23.867Z,8.00
2023-02-27T14:01:55.573Z,8.00
2023-02-27T14:04:26.291Z,8.00
2023-02-27T14:06:59.817Z,8.00
2023-02-27T14:09:37.016Z,8.10
2023-02-27T14:12:07.837Z,8.10
2023-02-27T14:14:40.874Z,8.10
2023-02-27T14:17:11.304Z,8.10
2023-02-27T14:19:59.393Z,8.10
2023-02-27T14:22:52.307Z,8.10
2023-02-27T14:25:30.099Z,8.10
2023-02-27T14:28:00.179Z,8.00
2023-02-27T14:30:36.517Z,8.00
2023-02-27T14:33:13.572Z,8.00
2023-02-27T14:35:46.985Z,8.00
2023-02-27T14:38:20.720Z,8.00
2023-02-27T14:41:14.640Z,8.00
2023-02-27T14:43:46.148Z,8.00
2023-02-27T14:46:27.061Z,8.10
2023-02-27T14:48:57.486Z,8.10
2023-02-27T14:51:26.735Z,8.10
2023-02-27T14:54:04.554Z,8.10
2023-02-27T14:56:35.757Z,8.10
2023-02-27T14:59:15.648Z,8.10
2023-02-27T15:01:44.070Z,8.20
2023-02-27T15:04:18.969Z,8.20
2023-02-27T15:06:50.261Z,8.20
2023-02-27T15:09:23.725Z,8.20
2023-02-27T15:12:03.576Z,8.30
2023-02-27T15:14:36.344Z,8.30
2023-02-27T15:17:05.911Z,8.30
2023-02-27T15:19:34.260Z,8.30
2023-02-27T15:22:05.558Z,8.30
2023-02-27T15:24:49.107Z,8.30
2023-02-27T15:27:23.166Z,8.30
2023-02-27T15:29:53.893Z,8.30
2023-02-27T15:32:28.954Z,8.30
2023-02-27T15:34:58.814Z,8.30
2023-02-27T15:37:28.831Z,8.30
2023-02-27T15:39:58.197Z,8.30
2023-02-27T15:42:30.785Z,8.30
2023-02-27T15:45:00.018Z,8.30
2023-02-27T15:47:30.750Z,8.20
2023-02-27T15:50:02.253Z,8.20
2023-02-27T15:52:39.902Z,8.20
2023-02-27T15:55:14.840Z,8.20
2023-02-27T15:57:56.442Z,8.20
2023-02-27T16:00:30.978Z,8.20
2023-02-27T16:03:00.165Z,8.30
2023-02-27T16:05:32.260Z,8.20
2023-02-27T16:08:01.019Z,8.30
2023-02-27T16:10:32.492Z,8.30
2023-02-27T16:13:21.771Z,8.50
2023-02-27T16:16:00.214Z,8.30
2023-02-27T16:18:32.666Z,8.30
2023-02-27T16:21:11.699Z,8.40
2023-02-27T16:23:40.606Z,8.30
2023-02-27T16:26:27.023Z,8.40
2023-02-27T16:29:00.032Z,8.40
2023-02-27T16:31:31.142Z,8.40
2023-02-27T16:34:01.847Z,8.40
2023-02-27T16:36:31.784Z,8.40
2023-02-27T16:39:00.280Z,8.50
2023-02-27T16:41:28.925Z,8.40
2023-02-27T16:43:58.702Z,8.30
2023-02-27T16:46:27.451Z,8.40
2023-02-27T16:49:00.674Z,8.30
2023-02-27T16:51:34.820Z,8.30
2023-02-27T16:54:03.258Z,8.30
2023-02-27T16:56:38.120Z,8.30
2023-02-27T16:59:17.153Z,8.30
2023-02-27T17:01:45.515Z,8.20
2023-02-27T17:04:25.300Z,8.20
2023-02-27T17:06:55.476Z,8.20
2023-02-27T17:09:24.090Z,8.20
2023-02-27T17:11:52.352Z,8.20
2023-02-27T17:14:22.124Z,8.20
2023-02-27T17:16:50.691Z,8.20
2023-02-27T17:19:21.500Z,8.10
2023-02-27T17:21:50.589Z,8.10
2023-02-27T17:24:19.140Z,8.10
2023-02-27T17:26:47.482Z,8.10
2023-02-27T17:29:16.579Z,8.10
2023-02-27T17:31:46.502Z,8.10
2023-02-27T17:34:15.454Z,8.10
2023-02-27T17:36:44.203Z,8.00
2023-02-27T17:39:14.860Z,8.00
2023-02-27T17:41:44.149Z,8.00
2023-02-27T17:44:13.316Z,8.00
2023-02-27T17:46:42.652Z,7.90
2023-02-27T17:49:12.329Z,7.90
2023-02-27T17:51:40.654Z,7.90
2023-02-27T17:54:09.012Z,7.90
2023-02-27T17:56:37.345Z,7.80
2023-02-27T17:59:05.655Z,7.80
2023-02-27T18:01:33.995Z,7.80
2023-02-27T18:04:02.359Z,7.80
2023-02-27T18:06:32.056Z,7.80
2023-02-27T18:09:00.543Z,7.80
2023-02-27T18:11:28.908Z,7.80
2023-02-27T18:13:57.521Z,7.70
2023-02-27T18:16:26.157Z,7.70
2023-02-27T18:18:55.896Z,7.60
2023-02-27T18:21:24.830Z,7.60
2023-02-27T18:23:54.592Z,7.60
2023-02-27T18:26:32.414Z,7.60
2023-02-27T18:29:02.879Z,7.60
2023-02-27T18:31:34.276Z,7.50
2023-02-27T18:34:03.107Z,7.50
2023-02-27T18:36:32.502Z,7.50
2023-02-27T18:39:02.606Z,7.50
2023-02-27T18:41:30.895Z,7.50
2023-02-27T18:43:59.624Z,7.50
2023-02-27T18:46:28.719Z,7.50
2023-02-27T18:48:57.306Z,7.40
2023-02-27T18:51:26.123Z,7.50
2023-02-27T18:53:54.908Z,7.40
2023-02-27T18:56:26.580Z,7.40
2023-02-27T18:58:55.230Z,7.40
2023-02-27T19:01:26.290Z,7.40
2023-02-27T19:04:00.297Z,7.30
2023-02-27T19:06:29.383Z,7.30
2023-02-27T19:08:57.938Z,7.30
2023-02-27T19:11:33.005Z,7.30
2023-02-27T19:14:03.216Z,7.30
2023-02-27T19:16:32.424Z,7.30
2023-02-27T19:19:02.381Z,7.30
2023-02-27T19:21:30.986Z,7.20
2023-02-27T19:24:00.095Z,7.20
2023-02-27T19:26:30.501Z,7.20
2023-02-27T19:28:58.974Z,7.20
2023-02-27T19:31:28.601Z,7.20
2023-02-27T19:33:57.092Z,7.30
2023-02-27T19:36:27.817Z,7.30
2023-02-27T19:38:57.041Z,7.20
2023-02-27T19:41:26.318Z,7.20
2023-02-27T19:43:56.431Z,7.20
2023-02-27T19:46:27.116Z,7.20
2023-02-27T19:48:59.452Z,7.20
2023-02-27T19:51:28.240Z,7.50
2023-02-27T19:53:56.934Z,7.20
2023-02-27T19:56:26.995Z,7.20
2023-02-27T19:58:57.795Z,7.20
2023-02-27T20:01:27.772Z,7.20
2023-02-27T20:03:56.731Z,7.10
2023-02-27T20:06:27.296Z,7.10
2023-02-27T20:08:57.134Z,7.10
2023-02-27T20:11:25.465Z,7.10
2023-02-27T20:13:54.166Z,7.10
2023-02-27T20:16:24.085Z,7.10
2023-02-27T20:18:53.169Z,7.10
2023-02-27T20:21:23.217Z,7.10
2023-02-27T20:23:52.366Z,7.10
2023-02-27T20:26:24.274Z,7.00
2023-02-27T20:28:53.933Z,7.20
2023-02-27T20:31:25.911Z,7.10
2023-02-27T20:33:54.854Z,7.10
2023-02-27T20:36:23.231Z,7.00
2023-02-27T20:38:51.531Z,7.00
2023-02-27T20:41:22.169Z,7.10
2023-02-27T20:43:51.437Z,7.10
2023-02-27T20:46:21.744Z,7.10
2023-02-27T20:48:51.678Z,7.10
2023-02-27T20:51:22.953Z,7.00
2023-02-27T20:53:53.819Z,7.00
2023-02-27T20:56:23.522Z,7.00
2023-02-27T20:58:51.999Z,7.00
2023-02-27T21:01:21.653Z,7.00
2023-02-27T21:03:51.461Z,7.00
2023-02-27T21:06:20.271Z,7.40
2023-02-27T21:08:51.219Z,7.00
2023-02-27T21:11:22.062Z,7.00
2023-02-27T21:13:50.552Z,7.00
2023-02-27T21:16:20.043Z,7.00
2023-02-27T21:18:51.297Z,6.90
2023-02-27T21:21:23.952Z,6.90
2023-02-27T21:23:52.892Z,6.90
2023-02-27T21:26:23.069Z,6.90
2023-02-27T21:28:53.085Z,6.90
2023-02-27T21:31:23.325Z,6.90
2023-02-27T21:33:52.545Z,6.90
2023-02-27T21:36:27.860Z,6.90
2023-02-27T21:38:58.009Z,6.90
2023-02-27T21:41:26.922Z,6.80
2023-02-27T21:44:00.016Z,6.80
2023-02-27T21:46:28.645Z,6.80
2023-02-27T21:48:56.960Z,6.80
2023-02-27T21:51:39.333Z,6.80
2023-02-27T21:54:11.586Z,6.70
2023-02-27T21:56:40.696Z,6.70
2023-02-27T21:59:09.972Z,6.70
2023-02-27T22:01:39.292Z,6.70
2023-02-27T22:04:07.859Z,6.70
2023-02-27T22:06:37.733Z,6.70
2023-02-27T22:09:08.042Z,6.70
2023-02-27T22:11:36.743Z,6.70
2023-02-27T22:14:06.918Z,6.70
2023-02-27T22:16:36.006Z,6.70
2023-02-27T22:19:07.697Z,6.60
2023-02-27T22:21:38.492Z,6.60
2023-02-27T22:24:08.042Z,6.60
2023-02-27T22:26:36.711Z,6.60
2023-02-27T22:29:06.093Z,6.60
2023-02-27T22:31:36.256Z,6.60
2023-02-27T22:34:06.942Z,6.60
2023-02-27T22:36:37.874Z,6.60
2023-02-27T22:39:07.308Z,6.60
2023-02-27T22:41:37.291Z,6.60
2023-02-27T22:44:06.200Z,6.50
2023-02-27T22:46:36.628Z,6.50
2023-02-27T22:49:06.962Z,6.50
2023-02-27T22:51:35.657Z,6.50
2023-02-27T22:54:06.792Z,6.50
2023-02-27T22:56:36.529Z,6.50
2023-02-27T22:59:05.791Z,6.50
2023-02-27T23:01:36.423Z,6.50
2023-02-27T23:04:07.340Z,6.50
2023-02-27T23:06:38.817Z,6.50
2023-02-27T23:09:10.113Z,6.50
2023-02-27T23:11:38.557Z,6.50
2023-02-27T23:14:06.863Z,6.40
2023-02-27T23:16:35.690Z,6.40
2023-02-27T23:19:04.526Z,6.40
2023-02-27T23:21:35.339Z,6.40
2023-02-27T23:24:10.242Z,6.40
2023-02-27T23:26:39.461Z,6.40
2023-02-27T23:29:09.284Z,6.40
2023-02-27T23:31:38.578Z,6.40
2023-02-27T23:34:07.881Z,6.40
2023-02-27T23:36:37.601Z,6.40
2023-02-27T23:39:07.271Z,6.40
2023-02-27T23:41:37.453Z,6.40
2023-02-27T23:44:06.011Z,6.40
2023-02-27T23:46:34.485Z,6.40
2023-02-27T23:49:03.155Z,6.40
2023-02-27T23:51:33.260Z,6.30
2023-02-27T23:54:02.084Z,6.30
2023-02-27T23:56:31.457Z,6.30
2023-02-27T23:59:02.806Z,6.30
